createdAt,value
2019-02-07T00:02:19.106Z,42.50
2019-02-07T00:04:47.479Z,39.50
2019-02-07T00:07:15.863Z,36.90
2019-02-07T00:09:44.386Z,40.30
2019-02-07T00:12:13.339Z,33.50
2019-02-07T00:14:41.726Z,36.13
2019-02-07T00:17:10.336Z,35.60
2019-02-07T00:19:38.781Z,39.47
2019-02-07T00:22:07.845Z,38.30
2019-02-07T00:24:42.935Z,33.00
2019-02-07T00:27:07.549Z,39.77
2019-02-07T00:29:35.988Z,39.23
2019-02-07T00:32:04.435Z,34.03
2019-02-07T00:34:32.838Z,32.98
2019-02-07T00:37:01.586Z,36.33
2019-02-07T00:39:30.581Z,36.48
2019-02-07T00:41:58.935Z,34.00
2019-02-07T00:44:27.269Z,35.63
2019-02-07T00:46:55.614Z,33.80
2019-02-07T00:49:23.974Z,38.63
2019-02-07T00:51:52.461Z,36.53
2019-02-07T00:54:20.832Z,32.83
2019-02-07T00:56:49.207Z,34.33
2019-02-07T00:59:17.575Z,33.90
2019-02-07T01:01:45.956Z,36.93
2019-02-07T01:04:14.374Z,35.97
2019-02-07T01:06:42.719Z,39.42
2019-02-07T01:09:12.311Z,36.70
2019-02-07T01:11:40.765Z,38.90
2019-02-07T01:14:09.564Z,39.13
2019-02-07T01:16:37.962Z,38.33
2019-02-07T01:19:06.377Z,37.07
2019-02-07T01:21:35.690Z,38.08
2019-02-07T01:24:04.398Z,37.63
2019-02-07T01:26:32.733Z,41.77
2019-02-07T01:29:01.091Z,32.57
2019-02-07T01:31:29.422Z,35.80
2019-02-07T01:33:57.844Z,43.37
2019-02-07T01:36:26.207Z,34.48
2019-02-07T01:38:54.571Z,31.93
2019-02-07T01:41:23.040Z,37.73
2019-02-07T01:43:51.544Z,40.97
2019-02-07T01:46:19.883Z,45.00
2019-02-07T01:48:48.257Z,36.80
2019-02-07T01:51:16.629Z,41.03
2019-02-07T01:53:44.976Z,35.13
2019-02-07T01:56:13.405Z,38.13
2019-02-07T01:58:41.735Z,39.10
2019-02-07T02:01:10.672Z,46.10
2019-02-07T02:03:39.074Z,36.30
2019-02-07T02:06:07.544Z,37.23
2019-02-07T02:08:35.928Z,36.93
2019-02-07T02:11:04.458Z,35.73
2019-02-07T02:13:33.418Z,36.57
2019-02-07T02:16:01.834Z,35.57
2019-02-07T02:18:30.288Z,38.98
2019-02-07T02:20:58.656Z,40.27
2019-02-07T02:23:26.990Z,38.83
2019-02-07T02:25:55.398Z,40.93
2019-02-07T02:28:24.429Z,41.77
2019-02-07T02:30:52.864Z,34.47
2019-02-07T02:33:21.358Z,39.10
2019-02-07T02:35:50.224Z,35.07
2019-02-07T02:38:19.089Z,36.63
2019-02-07T02:40:47.452Z,34.03
2019-02-07T02:43:15.861Z,35.77
2019-02-07T02:45:44.484Z,36.00
2019-02-07T02:48:13.070Z,33.42
2019-02-07T02:50:41.401Z,37.40
2019-02-07T02:53:10.178Z,40.40
2019-02-07T02:55:40.525Z,32.80
2019-02-07T02:58:09.196Z,38.97
2019-02-07T03:00:38.365Z,35.23
2019-02-07T03:03:09.705Z,35.57
2019-02-07T03:05:41.878Z,42.70
2019-02-07T03:08:13.073Z,40.10
2019-02-07T03:10:45.153Z,39.75
2019-02-07T03:13:15.131Z,44.65
2019-02-07T03:15:49.697Z,45.65
2019-02-07T03:18:18.615Z,38.15
2019-02-07T03:20:49.597Z,42.13
2019-02-07T03:23:20.561Z,38.33
2019-02-07T03:25:50.285Z,33.25
2019-02-07T03:28:22.254Z,34.77
2019-02-07T03:30:53.255Z,28.60
2019-02-07T03:33:24.415Z,33.20
2019-02-07T03:35:54.151Z,31.57
2019-02-07T03:38:25.348Z,32.73
2019-02-07T03:40:56.518Z,36.63
2019-02-07T03:43:27.261Z,31.87
2019-02-07T03:46:02.864Z,26.90
2019-02-07T03:48:33.212Z,32.50
2019-02-07T03:51:04.711Z,30.50
2019-02-07T03:53:36.822Z,36.00
2019-02-07T03:56:07.072Z,31.75
2019-02-07T03:58:38.189Z,34.47
2019-02-07T04:01:07.326Z,40.40
2019-02-07T04:03:39.307Z,31.52
2019-02-07T04:06:11.850Z,37.67
2019-02-07T04:08:42.687Z,36.63
2019-02-07T04:11:14.081Z,32.57
2019-02-07T04:13:44.244Z,33.57
2019-02-07T04:16:15.384Z,46.30
2019-02-07T04:18:47.110Z,36.10
2019-02-07T04:21:20.171Z,35.07
2019-02-07T04:23:52.076Z,34.67
2019-02-07T04:26:24.115Z,35.80
2019-02-07T04:28:56.243Z,35.50
2019-02-07T04:31:26.705Z,31.27
2019-02-07T04:33:57.001Z,36.50
2019-02-07T04:36:25.333Z,30.97
2019-02-07T04:38:56.478Z,30.67
2019-02-07T04:41:28.446Z,32.10
2019-02-07T04:43:58.058Z,33.90
2019-02-07T04:46:28.787Z,30.03
2019-02-07T04:49:00.828Z,36.03
2019-02-07T04:51:31.816Z,32.95
2019-02-07T04:54:02.963Z,30.70
2019-02-07T04:56:32.004Z,34.17
2019-02-07T04:59:03.117Z,32.60
2019-02-07T05:01:34.291Z,29.57
2019-02-07T05:04:05.290Z,44.77
2019-02-07T05:06:36.212Z,28.07
2019-02-07T05:09:09.206Z,32.73
2019-02-07T05:11:40.196Z,34.08
2019-02-07T05:14:09.703Z,28.67
2019-02-07T05:16:43.657Z,43.65
2019-02-07T05:19:15.327Z,37.10
2019-02-07T05:21:47.418Z,35.65
2019-02-07T05:24:19.469Z,31.07
2019-02-07T05:26:52.440Z,31.60
2019-02-07T05:29:22.866Z,29.57
2019-02-07T05:31:55.897Z,34.03
2019-02-07T05:34:26.607Z,28.63
2019-02-07T05:36:57.714Z,27.10
2019-02-07T05:39:27.448Z,30.93
2019-02-07T05:41:59.585Z,30.53
2019-02-07T05:44:30.020Z,32.77
2019-02-07T05:47:03.135Z,31.00
2019-02-07T05:49:34.073Z,36.23
2019-02-07T05:52:06.032Z,30.87
2019-02-07T05:54:38.152Z,32.50
2019-02-07T05:57:10.139Z,37.30
2019-02-07T05:59:40.928Z,32.40
2019-02-07T06:02:11.181Z,36.20
2019-02-07T06:04:40.413Z,30.33
2019-02-07T06:07:11.151Z,29.73
2019-02-07T06:09:40.943Z,31.30
2019-02-07T06:12:12.105Z,31.03
2019-02-07T06:14:40.772Z,28.87
2019-02-07T06:17:11.635Z,30.83
2019-02-07T06:19:42.713Z,35.10
2019-02-07T06:22:12.207Z,32.07
2019-02-07T06:24:42.494Z,33.73
2019-02-07T06:27:13.518Z,34.63
2019-02-07T06:29:45.523Z,31.93
2019-02-07T06:32:16.145Z,30.83
2019-02-07T06:34:48.023Z,37.30
2019-02-07T06:37:20.150Z,32.23
2019-02-07T06:39:50.445Z,30.67
2019-02-07T06:42:21.652Z,28.77
2019-02-07T06:44:54.791Z,27.27
2019-02-07T06:47:25.710Z,33.47
2019-02-07T06:49:57.724Z,29.40
2019-02-07T06:52:28.726Z,36.50
2019-02-07T06:54:58.839Z,35.83
2019-02-07T06:57:30.026Z,25.40
2019-02-07T06:59:58.706Z,27.30
2019-02-07T07:02:29.329Z,29.23
2019-02-07T07:04:59.606Z,30.53
2019-02-07T07:07:29.651Z,31.60
2019-02-07T07:09:59.173Z,38.13
2019-02-07T07:12:27.858Z,34.80
2019-02-07T07:14:59.949Z,36.77
2019-02-07T07:17:30.993Z,33.93
2019-02-07T07:20:00.998Z,37.23
2019-02-07T07:22:31.853Z,37.43
2019-02-07T07:25:02.654Z,35.50
2019-02-07T07:27:32.444Z,30.77
2019-02-07T07:30:03.556Z,35.83
2019-02-07T07:32:34.682Z,40.40
2019-02-07T07:35:07.464Z,32.30
2019-02-07T07:37:39.062Z,35.63
2019-02-07T07:40:12.341Z,32.07
2019-02-07T07:42:44.227Z,31.97
2019-02-07T07:45:18.207Z,41.73
2019-02-07T07:47:50.253Z,29.10
2019-02-07T07:53:12.386Z,32.83
2019-02-07T07:55:42.555Z,28.60
2019-02-07T08:01:19.161Z,33.17
2019-02-07T08:03:51.124Z,30.77
2019-02-07T08:06:21.406Z,30.77
2019-02-07T08:08:51.191Z,33.35
2019-02-07T08:11:21.574Z,31.60
2019-02-07T08:13:50.674Z,37.53
2019-02-07T08:16:20.314Z,37.20
2019-02-07T08:18:50.915Z,31.57
2019-02-07T08:21:22.951Z,31.03
2019-02-07T08:23:53.657Z,30.70
2019-02-07T08:26:24.741Z,39.97
2019-02-07T08:28:53.478Z,45.77
2019-02-07T08:31:25.592Z,32.17
2019-02-07T08:33:56.615Z,34.33
2019-02-07T08:36:31.631Z,31.10
2019-02-07T08:39:03.482Z,29.83
2019-02-07T08:44:32.213Z,31.43
2019-02-07T08:47:14.931Z,33.63
2019-02-07T08:49:45.659Z,33.43
2019-02-07T08:52:17.744Z,33.30
2019-02-07T08:54:48.614Z,49.90
2019-02-07T08:57:19.640Z,53.10
2019-02-07T08:59:51.025Z,42.88
2019-02-07T09:02:22.005Z,31.77
2019-02-07T09:04:53.056Z,32.37
2019-02-07T09:07:23.395Z,36.80
2019-02-07T09:09:56.486Z,37.33
2019-02-07T09:12:27.893Z,33.57
2019-02-07T09:15:13.101Z,37.33
2019-02-07T09:17:43.842Z,34.55
2019-02-07T09:20:17.502Z,38.50
2019-02-07T09:22:52.545Z,38.00
2019-02-07T09:25:26.413Z,36.70
2019-02-07T09:27:57.551Z,38.67
2019-02-07T09:30:28.604Z,35.85
2019-02-07T09:32:57.826Z,36.17
2019-02-07T09:35:28.538Z,35.43
2019-02-07T09:38:01.522Z,44.73
2019-02-07T09:40:31.921Z,32.70
2019-02-07T09:43:02.257Z,32.03
2019-02-07T09:45:31.869Z,40.58
2019-02-07T09:48:04.205Z,44.03
2019-02-07T09:50:35.205Z,33.47
2019-02-07T09:53:05.563Z,42.57
2019-02-07T09:55:36.842Z,37.80
2019-02-07T09:58:07.443Z,42.30
2019-02-07T10:00:39.719Z,33.93
2019-02-07T10:03:08.402Z,35.17
2019-02-07T10:05:39.392Z,39.30
2019-02-07T10:08:10.575Z,36.53
2019-02-07T10:10:42.743Z,36.37
2019-02-07T10:13:12.491Z,41.88
2019-02-07T10:15:43.288Z,39.60
2019-02-07T10:18:16.372Z,32.60
2019-02-07T10:20:47.606Z,34.87
2019-02-07T10:23:18.035Z,39.87
2019-02-07T10:25:51.266Z,33.27
2019-02-07T10:28:22.343Z,36.97
2019-02-07T10:30:55.464Z,35.73
2019-02-07T10:33:25.159Z,36.87
2019-02-07T10:35:56.269Z,42.23
2019-02-07T10:38:25.585Z,39.47
2019-02-07T10:40:54.345Z,32.93
2019-02-07T10:43:25.369Z,32.53
2019-02-07T10:45:58.461Z,38.90
2019-02-07T10:48:29.283Z,41.33
2019-02-07T10:51:03.473Z,34.30
2019-02-07T10:53:34.670Z,39.23
2019-02-07T10:56:05.981Z,30.23
2019-02-07T10:58:36.285Z,32.00
2019-02-07T11:01:08.717Z,31.37
2019-02-07T11:03:40.731Z,34.00
2019-02-07T11:06:11.350Z,42.40
2019-02-07T11:08:42.579Z,29.23
2019-02-07T11:11:14.617Z,34.07
2019-02-07T11:13:46.306Z,36.20
2019-02-07T11:16:17.405Z,33.00
2019-02-07T11:18:55.320Z,36.47
2019-02-07T11:21:21.758Z,34.23
2019-02-07T11:23:53.794Z,35.77
2019-02-07T11:26:25.789Z,42.63
2019-02-07T11:28:58.112Z,39.50
2019-02-07T11:31:28.923Z,31.23
2019-02-07T11:34:00.089Z,33.73
2019-02-07T11:36:31.792Z,35.50
2019-02-07T11:39:03.953Z,29.20
2019-02-07T11:41:34.420Z,31.73
2019-02-07T11:44:06.370Z,32.57
2019-02-07T11:46:38.418Z,37.23
2019-02-07T11:49:07.984Z,31.48
2019-02-07T11:51:39.883Z,34.83
2019-02-07T11:54:12.369Z,35.70
2019-02-07T11:56:43.553Z,32.83
2019-02-07T11:59:14.625Z,39.30
2019-02-07T12:01:45.758Z,35.17
2019-02-07T12:04:16.627Z,31.47
2019-02-07T12:06:49.118Z,32.13
2019-02-07T12:09:21.104Z,40.13
2019-02-07T12:11:53.121Z,35.10
2019-02-07T12:14:22.310Z,36.27
2019-02-07T12:16:54.271Z,34.70
2019-02-07T12:19:24.285Z,30.63
2019-02-07T12:21:55.838Z,33.77
2019-02-07T12:24:28.000Z,33.03
2019-02-07T12:26:59.181Z,33.03
2019-02-07T12:29:31.114Z,35.30
2019-02-07T12:32:02.241Z,34.98
2019-02-07T12:34:35.136Z,27.90
2019-02-07T12:37:04.540Z,31.93
2019-02-07T12:39:36.373Z,34.13
2019-02-07T12:42:07.350Z,31.12
2019-02-07T12:44:39.203Z,34.63
2019-02-07T12:47:12.106Z,35.60
2019-02-07T12:49:43.285Z,32.60
2019-02-07T12:52:14.589Z,37.83
2019-02-07T12:54:45.662Z,34.17
2019-02-07T12:57:14.636Z,33.20
2019-02-07T12:59:46.803Z,48.10
2019-02-07T13:02:17.559Z,34.73
2019-02-07T13:04:52.159Z,31.87
2019-02-07T13:07:24.343Z,39.47
2019-02-07T13:09:55.642Z,37.90
2019-02-07T13:12:28.623Z,31.27
2019-02-07T13:14:59.793Z,30.88
2019-02-07T13:17:30.868Z,35.47
2019-02-07T13:20:03.100Z,32.27
2019-02-07T13:22:35.372Z,36.43
2019-02-07T13:25:08.462Z,33.43
2019-02-07T13:27:40.680Z,31.37
2019-02-07T13:30:15.600Z,27.83
2019-02-07T13:32:47.838Z,36.30
2019-02-07T13:35:18.725Z,29.27
2019-02-07T13:37:54.782Z,30.00
2019-02-07T13:40:24.709Z,32.47
2019-02-07T13:42:56.658Z,30.40
2019-02-07T13:45:29.293Z,35.90
2019-02-07T13:48:00.336Z,30.20
2019-02-07T13:50:32.581Z,34.90
2019-02-07T13:53:04.933Z,35.87
2019-02-07T13:55:37.470Z,38.00
2019-02-07T13:58:10.808Z,29.80
2019-02-07T14:00:42.177Z,29.40
2019-02-07T14:03:13.958Z,28.87
2019-02-07T14:05:45.110Z,34.88
2019-02-07T14:08:15.340Z,29.97
2019-02-07T14:10:44.497Z,37.30
2019-02-07T14:13:16.772Z,40.23
2019-02-07T14:15:48.813Z,35.47
2019-02-07T14:18:20.957Z,42.80
2019-02-07T14:20:53.073Z,35.37
2019-02-07T14:23:25.069Z,38.38
2019-02-07T14:25:53.781Z,36.30
2019-02-07T14:28:24.164Z,38.07
2019-02-07T14:30:52.808Z,48.98
2019-02-07T14:33:23.822Z,40.10
2019-02-07T14:35:54.850Z,40.57
2019-02-07T14:38:26.881Z,35.00
2019-02-07T14:40:58.883Z,39.70
2019-02-07T14:43:29.842Z,46.20
2019-02-07T14:46:00.503Z,37.33
2019-02-07T14:48:29.173Z,46.23
2019-02-07T14:50:57.572Z,35.20
2019-02-07T14:53:25.956Z,39.40
2019-02-07T14:55:54.392Z,45.57
2019-02-07T14:58:22.741Z,41.20
2019-02-07T15:00:51.078Z,43.27
2019-02-07T15:03:19.405Z,34.20
2019-02-07T15:05:48.094Z,37.73
2019-02-07T15:08:16.534Z,41.90
2019-02-07T15:10:45.003Z,37.23
2019-02-07T15:13:13.770Z,45.37
2019-02-07T15:15:42.091Z,33.70
2019-02-07T15:18:10.598Z,44.03
2019-02-07T15:20:39.378Z,47.80
2019-02-07T15:23:08.234Z,39.67
2019-02-07T15:25:36.616Z,37.80
2019-02-07T15:28:05.253Z,37.13
2019-02-07T15:30:33.674Z,37.33
2019-02-07T15:33:01.997Z,39.47
2019-02-07T15:35:32.538Z,36.57
2019-02-07T15:38:01.110Z,38.47
2019-02-07T15:40:29.770Z,37.40
2019-02-07T15:42:58.443Z,33.63
2019-02-07T15:45:27.332Z,31.03
2019-02-07T15:47:55.711Z,35.40
2019-02-07T15:50:37.353Z,37.25
2019-02-07T15:52:58.392Z,38.67
2019-02-07T15:55:26.942Z,38.15
2019-02-07T15:57:55.566Z,32.10
2019-02-07T16:00:28.146Z,32.73
2019-02-07T16:02:59.606Z,35.17
2019-02-07T16:05:28.059Z,31.85
2019-02-07T16:07:56.445Z,37.73
2019-02-07T16:10:24.774Z,35.80
2019-02-07T16:12:53.164Z,32.27
2019-02-07T16:15:21.675Z,38.80
2019-02-07T16:17:50.066Z,31.40
2019-02-07T16:20:20.358Z,36.63
2019-02-07T16:22:48.790Z,36.27
2019-02-07T16:25:17.441Z,36.20
2019-02-07T16:27:45.838Z,32.50
2019-02-07T16:30:17.015Z,33.40
2019-02-07T16:32:45.461Z,35.83
2019-02-07T16:35:16.518Z,35.13
2019-02-07T16:37:45.040Z,33.67
2019-02-07T16:40:15.510Z,36.47
2019-02-07T16:42:44.739Z,38.15
2019-02-07T16:45:18.300Z,37.77
2019-02-07T16:47:46.646Z,35.40
2019-02-07T16:50:17.862Z,35.43
2019-02-07T16:52:46.276Z,33.10
2019-02-07T16:55:14.638Z,33.67
2019-02-07T16:57:43.157Z,32.00
2019-02-07T17:00:15.480Z,33.90
2019-02-07T17:02:44.193Z,31.93
2019-02-07T17:05:13.774Z,34.40
2019-02-07T17:07:42.271Z,34.80
2019-02-07T17:10:14.863Z,31.00
2019-02-07T17:12:43.430Z,34.90
2019-02-07T17:15:16.910Z,35.80
2019-02-07T17:17:45.523Z,40.37
2019-02-07T17:20:16.765Z,38.50
2019-02-07T17:22:47.489Z,39.10
2019-02-07T17:25:15.915Z,38.00
2019-02-07T17:27:44.419Z,38.53
2019-02-07T17:30:17.597Z,38.23
2019-02-07T17:32:46.329Z,37.85
2019-02-07T17:35:15.867Z,37.20
2019-02-07T17:37:44.507Z,39.20
2019-02-07T17:40:17.361Z,49.43
2019-02-07T17:42:46.125Z,38.93
2019-02-07T17:45:18.183Z,35.43
2019-02-07T17:47:47.074Z,39.53
2019-02-07T17:50:20.546Z,35.10
2019-02-07T17:52:50.396Z,37.23
2019-02-07T17:55:21.251Z,33.00
2019-02-07T17:57:49.621Z,34.60
2019-02-07T18:00:24.469Z,52.73
2019-02-07T18:02:52.979Z,46.23
2019-02-07T18:05:21.390Z,32.37
2019-02-07T18:07:49.814Z,29.70
2019-02-07T18:10:18.382Z,27.37
2019-02-07T18:12:46.860Z,29.90
2019-02-07T18:15:15.248Z,28.30
2019-02-07T18:17:44.074Z,28.65
2019-02-07T18:20:19.736Z,24.37
2019-02-07T18:22:48.206Z,27.73
2019-02-07T18:25:17.335Z,24.45
2019-02-07T18:27:45.817Z,25.53
2019-02-07T18:30:17.958Z,21.68
2019-02-07T18:32:46.815Z,22.80
2019-02-07T18:35:16.895Z,21.87
2019-02-07T18:37:45.506Z,28.63
2019-02-07T18:40:17.755Z,22.30
2019-02-07T18:42:46.147Z,28.42
2019-02-07T18:45:16.026Z,23.07
2019-02-07T18:47:44.719Z,19.53
2019-02-07T18:50:18.158Z,22.23
2019-02-07T18:52:46.526Z,18.73
2019-02-07T18:55:15.108Z,19.77
2019-02-07T18:57:43.524Z,17.17
2019-02-07T19:00:17.028Z,19.23
2019-02-07T19:02:45.380Z,19.67
2019-02-07T19:05:18.170Z,18.50
2019-02-07T19:07:46.667Z,22.20
2019-02-07T19:10:17.219Z,24.90
2019-02-07T19:12:45.848Z,17.87
2019-02-07T19:15:18.595Z,21.43
2019-02-07T19:17:47.572Z,19.70
2019-02-07T19:20:18.120Z,18.03
2019-02-07T19:22:46.812Z,17.73
2019-02-07T19:25:16.708Z,20.20
2019-02-07T19:27:45.204Z,22.22
2019-02-07T19:30:20.524Z,16.43
2019-02-07T19:32:49.101Z,24.47
2019-02-07T19:35:17.513Z,16.87
2019-02-07T19:37:45.927Z,20.83
2019-02-07T19:40:16.821Z,22.60
2019-02-07T19:42:45.356Z,19.53
2019-02-07T19:45:16.916Z,19.23
2019-02-07T19:47:45.539Z,19.87
2019-02-07T19:50:17.841Z,22.70
2019-02-07T19:52:46.606Z,20.60
2019-02-07T19:55:16.359Z,22.20
2019-02-07T19:57:45.230Z,23.07
2019-02-07T20:00:19.743Z,17.10
2019-02-07T20:02:49.040Z,22.13
2019-02-07T20:05:17.701Z,22.00
2019-02-07T20:07:46.976Z,22.22
2019-02-07T20:10:17.447Z,20.87
2019-02-07T20:12:47.186Z,25.23
2019-02-07T20:15:19.855Z,21.13
2019-02-07T20:17:48.205Z,22.30
2019-02-07T20:20:17.142Z,16.57
2019-02-07T20:22:47.927Z,22.10
2019-02-07T20:25:18.350Z,16.27
2019-02-07T20:27:46.856Z,25.93
2019-02-07T20:30:18.698Z,23.83
2019-02-07T20:32:47.184Z,21.80
2019-02-07T20:35:15.890Z,21.23
2019-02-07T20:37:44.267Z,21.93
2019-02-07T20:40:17.138Z,27.13
2019-02-07T20:42:46.580Z,25.90
2019-02-07T20:45:15.494Z,23.32
2019-02-07T20:47:44.312Z,20.57
2019-02-07T20:50:18.089Z,24.53
2019-02-07T20:52:46.827Z,23.40
2019-02-07T20:55:15.679Z,22.58
2019-02-07T20:57:44.029Z,22.33
2019-02-07T21:00:19.164Z,19.10
2019-02-07T21:02:47.743Z,21.87
2019-02-07T21:05:16.878Z,24.00
2019-02-07T21:07:45.396Z,18.87
2019-02-07T21:10:16.740Z,20.90
2019-02-07T21:12:45.152Z,19.20
2019-02-07T21:15:18.801Z,22.50
2019-02-07T21:17:47.240Z,23.37
2019-02-07T21:20:18.122Z,22.47
2019-02-07T21:22:46.609Z,23.13
2019-02-07T21:25:16.421Z,24.40
2019-02-07T21:27:44.839Z,21.03
2019-02-07T21:30:17.621Z,21.90
2019-02-07T21:32:46.534Z,24.30
2019-02-07T21:35:17.652Z,25.60
2019-02-07T21:37:46.232Z,18.33
2019-02-07T21:40:17.894Z,25.80
2019-02-07T21:42:46.426Z,23.00
2019-02-07T21:45:16.759Z,20.47
2019-02-07T21:47:45.244Z,23.17
2019-02-07T21:50:15.890Z,24.10
2019-02-07T21:52:44.260Z,19.40
2019-02-07T21:55:15.332Z,18.23
2019-02-07T21:57:43.923Z,20.15
2019-02-07T22:00:17.178Z,17.23
2019-02-07T22:02:45.759Z,19.50
2019-02-07T22:05:16.016Z,22.17
2019-02-07T22:07:44.490Z,17.87
2019-02-07T22:10:15.863Z,16.27
2019-02-07T22:12:44.710Z,17.10
2019-02-07T22:15:20.072Z,19.47
2019-02-07T22:17:50.042Z,15.20
2019-02-07T22:20:21.695Z,14.03
2019-02-07T22:22:50.271Z,16.43
2019-02-07T22:25:20.834Z,15.10
2019-02-07T22:27:49.178Z,16.60
2019-02-07T22:30:18.901Z,16.10
2019-02-07T22:32:47.584Z,14.27
2019-02-07T22:35:16.549Z,17.07
2019-02-07T22:37:45.047Z,12.87
2019-02-07T22:40:16.477Z,15.10
2019-02-07T22:42:48.053Z,14.57
2019-02-07T22:45:17.983Z,18.23
2019-02-07T22:47:46.941Z,21.70
2019-02-07T22:50:17.065Z,15.83
2019-02-07T22:52:45.484Z,16.10
2019-02-07T22:55:15.076Z,16.97
2019-02-07T22:57:43.499Z,17.17
2019-02-07T23:00:18.386Z,15.80
2019-02-07T23:02:46.808Z,18.93
2019-02-07T23:05:15.157Z,15.60
2019-02-07T23:07:43.573Z,13.63
2019-02-07T23:10:12.780Z,19.67
2019-02-07T23:12:41.170Z,13.80
2019-02-07T23:15:09.918Z,15.03
2019-02-07T23:17:38.708Z,13.90
2019-02-07T23:20:10.115Z,10.70
2019-02-07T23:22:38.412Z,15.38
2019-02-07T23:25:08.758Z,12.90
2019-02-07T23:27:37.202Z,17.97
2019-02-07T23:30:10.735Z,11.30
2019-02-07T23:32:39.154Z,13.37
2019-02-07T23:35:09.264Z,12.00
2019-02-07T23:37:37.561Z,16.20
2019-02-07T23:40:10.925Z,18.53
2019-02-07T23:42:39.317Z,21.03
2019-02-07T23:45:11.223Z,12.07
2019-02-07T23:47:39.574Z,12.90
2019-02-07T23:50:10.340Z,14.03
2019-02-07T23:52:38.703Z,16.40
2019-02-07T23:55:11.686Z,9.37
2019-02-07T23:57:40.114Z,14.30
